sensor_id;sensor_type;location;lat;lon;timestamp;P1;durP1;ratioP1;P2;durP2;ratioP2
22557;SDS011;11445;53.816;8.902;2024-02-16T00:02:12;20.65;;;10.85;;
22557;SDS011;11445;53.816;8.902;2024-02-16T00:04:40;20.27;;;10.60;;
22557;SDS011;11445;53.816;8.902;2024-02-16T00:07:07;18.85;;;10.57;;
22557;SDS011;11445;53.816;8.902;2024-02-16T00:09:34;15.40;;;9.95;;
22557;SDS011;11445;53.816;8.902;2024-02-16T00:12:02;18.20;;;10.82;;
22557;SDS011;11445;53.816;8.902;2024-02-16T00:14:29;21.13;;;10.57;;
22557;SDS011;11445;53.816;8.902;2024-02-16T00:16:56;25.33;;;10.63;;
22557;SDS011;11445;53.816;8.902;2024-02-16T00:19:23;18.65;;;9.90;;
22557;SDS011;11445;53.816;8.902;2024-02-16T00:21:50;16.63;;;9.73;;
22557;SDS011;11445;53.816;8.902;2024-02-16T00:24:17;15.68;;;9.77;;
22557;SDS011;11445;53.816;8.902;2024-02-16T00:26:43;22.27;;;10.52;;
22557;SDS011;11445;53.816;8.902;2024-02-16T00:29:13;17.55;;;10.30;;
22557;SDS011;11445;53.816;8.902;2024-02-16T00:31:40;17.90;;;10.43;;
22557;SDS011;11445;53.816;8.902;2024-02-16T00:34:06;20.48;;;9.88;;
22557;SDS011;11445;53.816;8.902;2024-02-16T00:36:33;19.10;;;10.75;;
22557;SDS011;11445;53.816;8.902;2024-02-16T00:39:00;19.25;;;10.07;;
22557;SDS011;11445;53.816;8.902;2024-02-16T00:41:28;19.30;;;10.07;;
22557;SDS011;11445;53.816;8.902;2024-02-16T00:43:55;17.63;;;9.68;;
22557;SDS011;11445;53.816;8.902;2024-02-16T00:46:23;23.00;;;9.90;;
22557;SDS011;11445;53.816;8.902;2024-02-16T00:48:51;16.63;;;9.43;;
22557;SDS011;11445;53.816;8.902;2024-02-16T00:51:19;17.40;;;9.95;;
22557;SDS011;11445;53.816;8.902;2024-02-16T00:53:46;18.20;;;9.73;;
22557;SDS011;11445;53.816;8.902;2024-02-16T00:56:12;14.68;;;9.88;;
22557;SDS011;11445;53.816;8.902;2024-02-16T00:58:40;17.42;;;9.25;;
22557;SDS011;11445;53.816;8.902;2024-02-16T01:01:07;13.02;;;9.10;;
22557;SDS011;11445;53.816;8.902;2024-02-16T01:03:37;16.67;;;9.52;;
22557;SDS011;11445;53.816;8.902;2024-02-16T01:06:05;18.98;;;9.27;;
22557;SDS011;11445;53.816;8.902;2024-02-16T01:08:34;16.70;;;8.75;;
22557;SDS011;11445;53.816;8.902;2024-02-16T01:11:00;14.38;;;9.00;;
22557;SDS011;11445;53.816;8.902;2024-02-16T01:13:27;16.33;;;8.38;;
22557;SDS011;11445;53.816;8.902;2024-02-16T01:15:54;18.98;;;8.18;;
22557;SDS011;11445;53.816;8.902;2024-02-16T01:18:21;16.00;;;8.35;;
22557;SDS011;11445;53.816;8.902;2024-02-16T01:20:49;13.02;;;8.30;;
22557;SDS011;11445;53.816;8.902;2024-02-16T01:23:16;17.77;;;8.38;;
22557;SDS011;11445;53.816;8.902;2024-02-16T01:25:43;16.88;;;8.50;;
22557;SDS011;11445;53.816;8.902;2024-02-16T01:28:10;15.60;;;8.02;;
22557;SDS011;11445;53.816;8.902;2024-02-16T01:30:37;21.88;;;9.07;;
22557;SDS011;11445;53.816;8.902;2024-02-16T01:33:04;13.25;;;8.68;;
22557;SDS011;11445;53.816;8.902;2024-02-16T01:35:31;15.68;;;8.55;;
22557;SDS011;11445;53.816;8.902;2024-02-16T01:37:59;15.20;;;8.02;;
22557;SDS011;11445;53.816;8.902;2024-02-16T01:40:26;14.27;;;7.82;;
22557;SDS011;11445;53.816;8.902;2024-02-16T01:42:53;10.30;;;7.32;;
22557;SDS011;11445;53.816;8.902;2024-02-16T01:45:20;15.05;;;7.82;;
22557;SDS011;11445;53.816;8.902;2024-02-16T01:47:47;9.82;;;7.60;;
22557;SDS011;11445;53.816;8.902;2024-02-16T01:50:16;15.23;;;7.45;;
22557;SDS011;11445;53.816;8.902;2024-02-16T01:52:44;13.45;;;7.32;;
22557;SDS011;11445;53.816;8.902;2024-02-16T01:55:14;14.23;;;7.68;;
22557;SDS011;11445;53.816;8.902;2024-02-16T01:57:42;17.30;;;7.88;;
22557;SDS011;11445;53.816;8.902;2024-02-16T02:00:10;18.40;;;8.05;;
22557;SDS011;11445;53.816;8.902;2024-02-16T02:02:39;17.45;;;7.63;;
22557;SDS011;11445;53.816;8.902;2024-02-16T02:05:07;15.30;;;7.75;;
22557;SDS011;11445;53.816;8.902;2024-02-16T02:07:34;13.20;;;7.43;;
22557;SDS011;11445;53.816;8.902;2024-02-16T02:10:01;14.45;;;6.82;;
22557;SDS011;11445;53.816;8.902;2024-02-16T02:12:29;19.08;;;7.45;;
22557;SDS011;11445;53.816;8.902;2024-02-16T02:14:56;14.02;;;6.78;;
22557;SDS011;11445;53.816;8.902;2024-02-16T02:17:23;10.38;;;6.55;;
22557;SDS011;11445;53.816;8.902;2024-02-16T02:19:50;17.98;;;6.90;;
22557;SDS011;11445;53.816;8.902;2024-02-16T02:22:18;8.95;;;6.38;;
22557;SDS011;11445;53.816;8.902;2024-02-16T02:24:46;14.25;;;6.85;;
22557;SDS011;11445;53.816;8.902;2024-02-16T02:27:14;9.25;;;6.63;;
22557;SDS011;11445;53.816;8.902;2024-02-16T02:29:41;14.73;;;6.65;;
22557;SDS011;11445;53.816;8.902;2024-02-16T02:32:09;13.38;;;6.90;;
22557;SDS011;11445;53.816;8.902;2024-02-16T02:34:38;11.90;;;6.93;;
22557;SDS011;11445;53.816;8.902;2024-02-16T02:37:05;15.98;;;7.00;;
22557;SDS011;11445;53.816;8.902;2024-02-16T02:39:34;11.98;;;6.32;;
22557;SDS011;11445;53.816;8.902;2024-02-16T02:42:00;10.52;;;6.18;;
22557;SDS011;11445;53.816;8.902;2024-02-16T02:44:28;14.30;;;6.57;;
22557;SDS011;11445;53.816;8.902;2024-02-16T02:46:56;11.15;;;6.15;;
22557;SDS011;11445;53.816;8.902;2024-02-16T02:49:23;18.83;;;6.55;;
22557;SDS011;11445;53.816;8.902;2024-02-16T02:51:50;13.90;;;5.70;;
22557;SDS011;11445;53.816;8.902;2024-02-16T02:54:16;10.57;;;6.05;;
22557;SDS011;11445;53.816;8.902;2024-02-16T02:56:45;14.70;;;6.18;;
22557;SDS011;11445;53.816;8.902;2024-02-16T02:59:11;11.63;;;5.80;;
22557;SDS011;11445;53.816;8.902;2024-02-16T03:01:38;10.13;;;6.00;;
22557;SDS011;11445;53.816;8.902;2024-02-16T03:04:05;13.50;;;6.20;;
22557;SDS011;11445;53.816;8.902;2024-02-16T03:06:32;11.23;;;6.28;;
22557;SDS011;11445;53.816;8.902;2024-02-16T03:08:59;13.30;;;5.78;;
22557;SDS011;11445;53.816;8.902;2024-02-16T03:11:25;7.60;;;5.38;;
22557;SDS011;11445;53.816;8.902;2024-02-16T03:13:54;14.00;;;5.40;;
22557;SDS011;11445;53.816;8.902;2024-02-16T03:16:20;11.48;;;5.45;;
22557;SDS011;11445;53.816;8.902;2024-02-16T03:18:48;10.82;;;5.72;;
22557;SDS011;11445;53.816;8.902;2024-02-16T03:21:15;9.95;;;5.60;;
22557;SDS011;11445;53.816;8.902;2024-02-16T03:23:42;16.75;;;5.72;;
22557;SDS011;11445;53.816;8.902;2024-02-16T03:26:13;11.48;;;5.63;;
22557;SDS011;11445;53.816;8.902;2024-02-16T03:28:43;13.30;;;5.60;;
22557;SDS011;11445;53.816;8.902;2024-02-16T03:31:15;16.00;;;5.63;;
22557;SDS011;11445;53.816;8.902;2024-02-16T03:33:43;9.32;;;5.45;;
22557;SDS011;11445;53.816;8.902;2024-02-16T03:36:10;9.60;;;4.80;;
22557;SDS011;11445;53.816;8.902;2024-02-16T03:38:37;9.68;;;5.30;;
22557;SDS011;11445;53.816;8.902;2024-02-16T03:41:06;10.13;;;5.80;;
22557;SDS011;11445;53.816;8.902;2024-02-16T03:43:33;12.35;;;5.53;;
22557;SDS011;11445;53.816;8.902;2024-02-16T03:46:01;14.18;;;5.28;;
22557;SDS011;11445;53.816;8.902;2024-02-16T03:48:29;8.98;;;5.50;;
22557;SDS011;11445;53.816;8.902;2024-02-16T03:50:56;10.13;;;5.38;;
22557;SDS011;11445;53.816;8.902;2024-02-16T03:53:23;7.45;;;4.75;;
22557;SDS011;11445;53.816;8.902;2024-02-16T03:55:52;8.77;;;5.38;;
22557;SDS011;11445;53.816;8.902;2024-02-16T03:58:18;7.95;;;5.43;;
22557;SDS011;11445;53.816;8.902;2024-02-16T04:00:45;9.02;;;5.47;;
22557;SDS011;11445;53.816;8.902;2024-02-16T04:03:14;12.52;;;5.30;;
22557;SDS011;11445;53.816;8.902;2024-02-16T04:05:42;9.13;;;5.90;;
22557;SDS011;11445;53.816;8.902;2024-02-16T04:08:09;17.02;;;6.03;;
22557;SDS011;11445;53.816;8.902;2024-02-16T04:10:36;8.93;;;5.03;;
22557;SDS011;11445;53.816;8.902;2024-02-16T04:13:03;9.38;;;5.32;;
22557;SDS011;11445;53.816;8.902;2024-02-16T04:15:30;8.38;;;4.80;;
22557;SDS011;11445;53.816;8.902;2024-02-16T04:17:57;9.18;;;4.85;;
22557;SDS011;11445;53.816;8.902;2024-02-16T04:20:23;10.13;;;5.45;;
22557;SDS011;11445;53.816;8.902;2024-02-16T04:22:52;10.45;;;4.47;;
22557;SDS011;11445;53.816;8.902;2024-02-16T04:25:19;9.98;;;4.88;;
22557;SDS011;11445;53.816;8.902;2024-02-16T04:27:46;7.15;;;4.75;;
22557;SDS011;11445;53.816;8.902;2024-02-16T04:30:12;16.42;;;5.03;;
22557;SDS011;11445;53.816;8.902;2024-02-16T04:32:39;9.63;;;4.40;;
22557;SDS011;11445;53.816;8.902;2024-02-16T04:35:06;11.30;;;5.00;;
22557;SDS011;11445;53.816;8.902;2024-02-16T04:37:36;9.25;;;4.82;;
22557;SDS011;11445;53.816;8.902;2024-02-16T04:40:05;9.73;;;5.00;;
22557;SDS011;11445;53.816;8.902;2024-02-16T04:42:33;11.40;;;4.85;;
22557;SDS011;11445;53.816;8.902;2024-02-16T04:44:59;10.57;;;4.82;;
22557;SDS011;11445;53.816;8.902;2024-02-16T04:47:26;12.82;;;4.30;;
22557;SDS011;11445;53.816;8.902;2024-02-16T04:49:53;8.27;;;4.07;;
22557;SDS011;11445;53.816;8.902;2024-02-16T04:52:20;8.07;;;4.82;;
22557;SDS011;11445;53.816;8.902;2024-02-16T04:54:47;12.88;;;4.40;;
22557;SDS011;11445;53.816;8.902;2024-02-16T04:57:15;9.82;;;4.70;;
22557;SDS011;11445;53.816;8.902;2024-02-16T04:59:42;8.38;;;4.60;;
22557;SDS011;11445;53.816;8.902;2024-02-16T05:02:08;11.40;;;4.90;;
22557;SDS011;11445;53.816;8.902;2024-02-16T05:04:35;10.00;;;4.97;;
22557;SDS011;11445;53.816;8.902;2024-02-16T05:07:02;7.43;;;4.43;;
22557;SDS011;11445;53.816;8.902;2024-02-16T05:09:31;6.93;;;4.43;;
22557;SDS011;11445;53.816;8.902;2024-02-16T05:11:58;11.52;;;4.38;;
22557;SDS011;11445;53.816;8.902;2024-02-16T05:14:26;9.65;;;4.45;;
22557;SDS011;11445;53.816;8.902;2024-02-16T05:16:54;8.27;;;4.43;;
22557;SDS011;11445;53.816;8.902;2024-02-16T05:19:20;8.75;;;4.15;;
22557;SDS011;11445;53.816;8.902;2024-02-16T05:21:47;9.40;;;4.43;;
22557;SDS011;11445;53.816;8.902;2024-02-16T05:24:14;8.75;;;4.20;;
22557;SDS011;11445;53.816;8.902;2024-02-16T05:26:41;8.43;;;4.25;;
22557;SDS011;11445;53.816;8.902;2024-02-16T05:29:07;7.95;;;4.20;;
22557;SDS011;11445;53.816;8.902;2024-02-16T05:31:36;9.40;;;3.70;;
22557;SDS011;11445;53.816;8.902;2024-02-16T05:34:03;7.03;;;4.05;;
22557;SDS011;11445;53.816;8.902;2024-02-16T05:36:30;9.48;;;4.15;;
22557;SDS011;11445;53.816;8.902;2024-02-16T05:39:00;5.60;;;3.67;;
22557;SDS011;11445;53.816;8.902;2024-02-16T05:41:44;10.60;;;4.13;;
22557;SDS011;11445;53.816;8.902;2024-02-16T05:44:11;9.60;;;3.72;;
22557;SDS011;11445;53.816;8.902;2024-02-16T05:46:40;9.40;;;3.42;;
22557;SDS011;11445;53.816;8.902;2024-02-16T05:49:06;6.43;;;4.05;;
22557;SDS011;11445;53.816;8.902;2024-02-16T05:51:35;9.43;;;4.28;;
22557;SDS011;11445;53.816;8.902;2024-02-16T05:54:04;7.22;;;4.22;;
22557;SDS011;11445;53.816;8.902;2024-02-16T05:56:32;9.27;;;4.90;;
22557;SDS011;11445;53.816;8.902;2024-02-16T05:58:59;10.27;;;5.20;;
22557;SDS011;11445;53.816;8.902;2024-02-16T06:01:26;10.52;;;5.10;;
22557;SDS011;11445;53.816;8.902;2024-02-16T06:03:55;9.90;;;4.15;;
22557;SDS011;11445;53.816;8.902;2024-02-16T06:06:22;8.32;;;4.60;;
22557;SDS011;11445;53.816;8.902;2024-02-16T06:08:48;12.40;;;4.65;;
22557;SDS011;11445;53.816;8.902;2024-02-16T06:11:15;10.77;;;4.78;;
22557;SDS011;11445;53.816;8.902;2024-02-16T06:13:42;8.60;;;4.68;;
22557;SDS011;11445;53.816;8.902;2024-02-16T06:16:09;9.38;;;4.50;;
22557;SDS011;11445;53.816;8.902;2024-02-16T06:18:36;11.70;;;4.68;;
22557;SDS011;11445;53.816;8.902;2024-02-16T06:21:04;11.00;;;4.15;;
22557;SDS011;11445;53.816;8.902;2024-02-16T06:23:31;9.73;;;4.63;;
22557;SDS011;11445;53.816;8.902;2024-02-16T06:25:57;12.55;;;4.10;;
22557;SDS011;11445;53.816;8.902;2024-02-16T06:28:24;6.25;;;4.20;;
22557;SDS011;11445;53.816;8.902;2024-02-16T06:30:51;5.53;;;3.72;;
22557;SDS011;11445;53.816;8.902;2024-02-16T06:33:18;15.30;;;4.38;;
22557;SDS011;11445;53.816;8.902;2024-02-16T06:35:46;6.85;;;4.28;;
22557;SDS011;11445;53.816;8.902;2024-02-16T06:38:16;7.38;;;3.75;;
22557;SDS011;11445;53.816;8.902;2024-02-16T06:40:43;9.13;;;4.47;;
22557;SDS011;11445;53.816;8.902;2024-02-16T06:43:10;10.50;;;4.43;;
22557;SDS011;11445;53.816;8.902;2024-02-16T06:45:36;8.63;;;4.32;;
22557;SDS011;11445;53.816;8.902;2024-02-16T06:48:03;8.77;;;4.30;;
22557;SDS011;11445;53.816;8.902;2024-02-16T06:50:30;8.93;;;4.18;;
22557;SDS011;11445;53.816;8.902;2024-02-16T06:52:57;6.68;;;3.70;;
22557;SDS011;11445;53.816;8.902;2024-02-16T06:55:26;7.25;;;4.18;;
22557;SDS011;11445;53.816;8.902;2024-02-16T06:57:53;11.73;;;4.47;;
22557;SDS011;11445;53.816;8.902;2024-02-16T07:00:19;10.38;;;4.68;;
22557;SDS011;11445;53.816;8.902;2024-02-16T07:02:46;8.60;;;4.70;;
22557;SDS011;11445;53.816;8.902;2024-02-16T07:05:13;9.80;;;4.20;;
22557;SDS011;11445;53.816;8.902;2024-02-16T07:07:40;5.72;;;3.67;;
22557;SDS011;11445;53.816;8.902;2024-02-16T07:10:07;6.72;;;3.70;;
22557;SDS011;11445;53.816;8.902;2024-02-16T07:12:39;10.55;;;4.03;;
22557;SDS011;11445;53.816;8.902;2024-02-16T07:15:06;6.40;;;4.03;;
22557;SDS011;11445;53.816;8.902;2024-02-16T07:17:34;7.18;;;3.42;;
22557;SDS011;11445;53.816;8.902;2024-02-16T07:20:02;10.60;;;3.80;;
22557;SDS011;11445;53.816;8.902;2024-02-16T07:22:29;7.50;;;3.92;;
22557;SDS011;11445;53.816;8.902;2024-02-16T07:24:57;9.20;;;4.15;;
22557;SDS011;11445;53.816;8.902;2024-02-16T07:27:25;7.20;;;3.60;;
22557;SDS011;11445;53.816;8.902;2024-02-16T07:29:53;5.90;;;3.65;;
22557;SDS011;11445;53.816;8.902;2024-02-16T07:32:20;11.38;;;4.25;;
22557;SDS011;11445;53.816;8.902;2024-02-16T07:34:47;11.68;;;4.43;;
22557;SDS011;11445;53.816;8.902;2024-02-16T07:37:14;7.68;;;3.67;;
22557;SDS011;11445;53.816;8.902;2024-02-16T07:39:41;9.13;;;3.92;;
22557;SDS011;11445;53.816;8.902;2024-02-16T07:42:08;7.55;;;3.72;;
22557;SDS011;11445;53.816;8.902;2024-02-16T07:44:36;5.82;;;3.28;;
22557;SDS011;11445;53.816;8.902;2024-02-16T07:47:05;10.48;;;3.40;;
22557;SDS011;11445;53.816;8.902;2024-02-16T07:49:32;8.95;;;3.53;;
22557;SDS011;11445;53.816;8.902;2024-02-16T07:51:59;7.28;;;3.40;;
22557;SDS011;11445;53.816;8.902;2024-02-16T07:54:25;6.65;;;3.53;;
22557;SDS011;11445;53.816;8.902;2024-02-16T07:56:52;12.27;;;3.63;;
22557;SDS011;11445;53.816;8.902;2024-02-16T07:59:19;8.90;;;3.78;;
22557;SDS011;11445;53.816;8.902;2024-02-16T08:01:47;11.93;;;3.75;;
22557;SDS011;11445;53.816;8.902;2024-02-16T08:04:15;7.30;;;3.55;;
22557;SDS011;11445;53.816;8.902;2024-02-16T08:06:42;9.35;;;3.30;;
22557;SDS011;11445;53.816;8.902;2024-02-16T08:09:09;5.57;;;3.50;;
22557;SDS011;11445;53.816;8.902;2024-02-16T08:11:35;8.68;;;3.70;;
22557;SDS011;11445;53.816;8.902;2024-02-16T08:14:02;6.40;;;3.20;;
22557;SDS011;11445;53.816;8.902;2024-02-16T08:16:29;7.47;;;3.30;;
22557;SDS011;11445;53.816;8.902;2024-02-16T08:18:56;6.53;;;3.38;;
22557;SDS011;11445;53.816;8.902;2024-02-16T08:21:24;4.78;;;3.13;;
22557;SDS011;11445;53.816;8.902;2024-02-16T08:23:51;8.27;;;3.28;;
22557;SDS011;11445;53.816;8.902;2024-02-16T08:26:17;7.05;;;3.15;;
22557;SDS011;11445;53.816;8.902;2024-02-16T08:28:44;7.75;;;3.20;;
22557;SDS011;11445;53.816;8.902;2024-02-16T08:31:14;6.03;;;3.65;;
22557;SDS011;11445;53.816;8.902;2024-02-16T08:33:43;13.10;;;3.53;;
22557;SDS011;11445;53.816;8.902;2024-02-16T08:36:10;14.27;;;4.03;;
22557;SDS011;11445;53.816;8.902;2024-02-16T08:38:38;5.47;;;3.00;;
22557;SDS011;11445;53.816;8.902;2024-02-16T08:41:05;5.53;;;3.47;;
22557;SDS011;11445;53.816;8.902;2024-02-16T08:43:32;5.95;;;3.50;;
22557;SDS011;11445;53.816;8.902;2024-02-16T08:46:00;8.70;;;3.33;;
22557;SDS011;11445;53.816;8.902;2024-02-16T08:48:26;8.60;;;3.45;;
22557;SDS011;11445;53.816;8.902;2024-02-16T08:50:53;13.27;;;4.28;;
22557;SDS011;11445;53.816;8.902;2024-02-16T08:53:20;7.82;;;3.30;;
22557;SDS011;11445;53.816;8.902;2024-02-16T08:55:48;6.00;;;3.60;;
22557;SDS011;11445;53.816;8.902;2024-02-16T08:58:15;5.35;;;3.60;;
22557;SDS011;11445;53.816;8.902;2024-02-16T09:00:42;8.43;;;3.90;;
22557;SDS011;11445;53.816;8.902;2024-02-16T09:03:09;13.13;;;4.53;;
22557;SDS011;11445;53.816;8.902;2024-02-16T09:05:36;6.80;;;3.30;;
22557;SDS011;11445;53.816;8.902;2024-02-16T09:08:03;8.65;;;3.40;;
22557;SDS011;11445;53.816;8.902;2024-02-16T09:10:31;8.18;;;4.03;;
22557;SDS011;11445;53.816;8.902;2024-02-16T09:12:59;12.98;;;3.83;;
22557;SDS011;11445;53.816;8.902;2024-02-16T09:15:26;11.45;;;3.30;;
22557;SDS011;11445;53.816;8.902;2024-02-16T09:17:53;8.32;;;2.95;;
22557;SDS011;11445;53.816;8.902;2024-02-16T09:20:20;4.57;;;2.70;;
22557;SDS011;11445;53.816;8.902;2024-02-16T09:22:47;11.00;;;3.28;;
22557;SDS011;11445;53.816;8.902;2024-02-16T09:25:14;6.13;;;2.80;;
22557;SDS011;11445;53.816;8.902;2024-02-16T09:27:41;5.97;;;3.10;;
22557;SDS011;11445;53.816;8.902;2024-02-16T09:30:11;8.63;;;3.30;;
22557;SDS011;11445;53.816;8.902;2024-02-16T09:32:39;8.30;;;3.28;;
22557;SDS011;11445;53.816;8.902;2024-02-16T09:35:07;5.60;;;3.22;;
22557;SDS011;11445;53.816;8.902;2024-02-16T09:37:34;7.43;;;3.10;;
22557;SDS011;11445;53.816;8.902;2024-02-16T09:40:02;11.85;;;3.38;;
22557;SDS011;11445;53.816;8.902;2024-02-16T09:42:30;10.55;;;3.38;;
22557;SDS011;11445;53.816;8.902;2024-02-16T09:44:58;13.05;;;3.10;;
22557;SDS011;11445;53.816;8.902;2024-02-16T09:47:27;9.00;;;3.22;;
22557;SDS011;11445;53.816;8.902;2024-02-16T09:49:58;10.38;;;3.72;;
22557;SDS011;11445;53.816;8.902;2024-02-16T09:52:24;6.45;;;3.13;;
22557;SDS011;11445;53.816;8.902;2024-02-16T09:54:52;12.75;;;3.60;;
22557;SDS011;11445;53.816;8.902;2024-02-16T09:57:18;6.72;;;3.47;;
22557;SDS011;11445;53.816;8.902;2024-02-16T09:59:46;5.97;;;3.00;;
22557;SDS011;11445;53.816;8.902;2024-02-16T10:02:12;7.50;;;3.58;;
22557;SDS011;11445;53.816;8.902;2024-02-16T10:04:40;9.80;;;3.55;;
22557;SDS011;11445;53.816;8.902;2024-02-16T10:07:07;10.38;;;3.65;;
22557;SDS011;11445;53.816;8.902;2024-02-16T10:09:34;5.53;;;3.20;;
22557;SDS011;11445;53.816;8.902;2024-02-16T10:12:01;6.82;;;3.45;;
22557;SDS011;11445;53.816;8.902;2024-02-16T10:14:28;5.50;;;3.63;;
22557;SDS011;11445;53.816;8.902;2024-02-16T10:17:00;8.85;;;3.20;;
22557;SDS011;11445;53.816;8.902;2024-02-16T10:19:28;8.25;;;3.10;;
22557;SDS011;11445;53.816;8.902;2024-02-16T10:22:07;11.38;;;2.75;;
22557;SDS011;11445;53.816;8.902;2024-02-16T10:24:35;9.63;;;3.15;;
22557;SDS011;11445;53.816;8.902;2024-02-16T10:27:03;8.07;;;3.05;;
22557;SDS011;11445;53.816;8.902;2024-02-16T10:29:30;10.70;;;3.60;;
22557;SDS011;11445;53.816;8.902;2024-02-16T10:32:00;7.47;;;3.10;;
22557;SDS011;11445;53.816;8.902;2024-02-16T10:34:26;8.18;;;2.97;;
22557;SDS011;11445;53.816;8.902;2024-02-16T10:36:55;9.43;;;3.33;;
22557;SDS011;11445;53.816;8.902;2024-02-16T10:39:24;6.18;;;3.50;;
22557;SDS011;11445;53.816;8.902;2024-02-16T10:41:51;6.53;;;3.50;;
22557;SDS011;11445;53.816;8.902;2024-02-16T10:44:19;7.20;;;3.30;;
22557;SDS011;11445;53.816;8.902;2024-02-16T10:46:46;9.73;;;3.35;;
22557;SDS011;11445;53.816;8.902;2024-02-16T10:49:13;10.52;;;3.17;;
22557;SDS011;11445;53.816;8.902;2024-02-16T10:51:42;3.80;;;2.85;;
22557;SDS011;11445;53.816;8.902;2024-02-16T10:54:13;6.65;;;3.55;;
22557;SDS011;11445;53.816;8.902;2024-02-16T10:56:44;4.47;;;3.47;;
22557;SDS011;11445;53.816;8.902;2024-02-16T10:59:11;8.57;;;3.58;;
22557;SDS011;11445;53.816;8.902;2024-02-16T11:01:38;6.55;;;3.70;;
22557;SDS011;11445;53.816;8.902;2024-02-16T11:04:06;7.00;;;4.10;;
22557;SDS011;11445;53.816;8.902;2024-02-16T11:06:46;5.90;;;3.85;;
22557;SDS011;11445;53.816;8.902;2024-02-16T11:09:25;10.48;;;3.67;;
22557;SDS011;11445;53.816;8.902;2024-02-16T11:11:54;5.55;;;3.97;;
22557;SDS011;11445;53.816;8.902;2024-02-16T11:14:21;8.50;;;3.92;;
22557;SDS011;11445;53.816;8.902;2024-02-16T11:16:49;6.32;;;3.95;;
22557;SDS011;11445;53.816;8.902;2024-02-16T11:19:21;6.13;;;3.58;;
22557;SDS011;11445;53.816;8.902;2024-02-16T11:21:55;7.28;;;3.88;;
22557;SDS011;11445;53.816;8.902;2024-02-16T11:24:29;9.80;;;4.18;;
22557;SDS011;11445;53.816;8.902;2024-02-16T11:27:00;7.33;;;3.90;;
22557;SDS011;11445;53.816;8.902;2024-02-16T11:29:32;10.35;;;4.10;;
22557;SDS011;11445;53.816;8.902;2024-02-16T11:32:00;7.18;;;4.32;;
22557;SDS011;11445;53.816;8.902;2024-02-16T11:34:28;7.25;;;4.22;;
22557;SDS011;11445;53.816;8.902;2024-02-16T11:36:55;7.63;;;4.25;;
22557;SDS011;11445;53.816;8.902;2024-02-16T11:39:23;11.80;;;4.05;;
22557;SDS011;11445;53.816;8.902;2024-02-16T11:41:59;10.40;;;4.00;;
22557;SDS011;11445;53.816;8.902;2024-02-16T11:44:28;9.63;;;3.92;;
22557;SDS011;11445;53.816;8.902;2024-02-16T11:46:56;8.77;;;4.25;;
22557;SDS011;11445;53.816;8.902;2024-02-16T11:49:24;6.97;;;4.25;;
22557;SDS011;11445;53.816;8.902;2024-02-16T11:51:51;8.77;;;4.28;;
22557;SDS011;11445;53.816;8.902;2024-02-16T11:54:17;8.23;;;4.78;;
22557;SDS011;11445;53.816;8.902;2024-02-16T11:56:44;8.27;;;4.60;;
22557;SDS011;11445;53.816;8.902;2024-02-16T11:59:13;10.13;;;4.30;;
22557;SDS011;11445;53.816;8.902;2024-02-16T12:01:51;11.32;;;4.85;;
22557;SDS011;11445;53.816;8.902;2024-02-16T12:04:19;11.38;;;4.78;;
22557;SDS011;11445;53.816;8.902;2024-02-16T12:06:51;10.63;;;5.20;;
22557;SDS011;11445;53.816;8.902;2024-02-16T12:09:19;11.05;;;4.85;;
22557;SDS011;11445;53.816;8.902;2024-02-16T12:11:47;8.55;;;4.50;;
22557;SDS011;11445;53.816;8.902;2024-02-16T12:14:16;8.65;;;4.70;;
22557;SDS011;11445;53.816;8.902;2024-02-16T12:16:46;9.00;;;5.13;;
22557;SDS011;11445;53.816;8.902;2024-02-16T12:19:13;9.60;;;5.30;;
22557;SDS011;11445;53.816;8.902;2024-02-16T12:21:40;11.88;;;5.20;;
22557;SDS011;11445;53.816;8.902;2024-02-16T12:24:07;7.38;;;4.32;;
22557;SDS011;11445;53.816;8.902;2024-02-16T12:26:35;11.25;;;5.57;;
22557;SDS011;11445;53.816;8.902;2024-02-16T12:29:02;6.10;;;4.78;;
22557;SDS011;11445;53.816;8.902;2024-02-16T12:31:30;10.15;;;4.70;;
22557;SDS011;11445;53.816;8.902;2024-02-16T12:33:57;10.60;;;5.03;;
22557;SDS011;11445;53.816;8.902;2024-02-16T12:36:24;6.70;;;4.93;;
22557;SDS011;11445;53.816;8.902;2024-02-16T12:38:52;9.38;;;4.90;;
22557;SDS011;11445;53.816;8.902;2024-02-16T12:41:20;7.85;;;5.25;;
22557;SDS011;11445;53.816;8.902;2024-02-16T12:43:47;8.75;;;4.97;;
22557;SDS011;11445;53.816;8.902;2024-02-16T12:46:13;8.35;;;4.72;;
22557;SDS011;11445;53.816;8.902;2024-02-16T12:48:43;10.32;;;5.20;;
22557;SDS011;11445;53.816;8.902;2024-02-16T12:51:10;9.70;;;5.30;;
22557;SDS011;11445;53.816;8.902;2024-02-16T12:53:37;8.65;;;5.05;;
22557;SDS011;11445;53.816;8.902;2024-02-16T12:56:06;7.68;;;4.72;;
22557;SDS011;11445;53.816;8.902;2024-02-16T12:58:34;10.43;;;5.22;;
22557;SDS011;11445;53.816;8.902;2024-02-16T13:01:01;9.60;;;4.53;;
22557;SDS011;11445;53.816;8.902;2024-02-16T13:03:31;12.85;;;5.30;;
22557;SDS011;11445;53.816;8.902;2024-02-16T13:05:59;9.55;;;5.18;;
22557;SDS011;11445;53.816;8.902;2024-02-16T13:08:26;9.05;;;5.35;;
22557;SDS011;11445;53.816;8.902;2024-02-16T13:10:53;10.10;;;5.38;;
22557;SDS011;11445;53.816;8.902;2024-02-16T13:13:20;11.95;;;6.03;;
22557;SDS011;11445;53.816;8.902;2024-02-16T13:15:47;9.88;;;5.43;;
22557;SDS011;11445;53.816;8.902;2024-02-16T13:18:14;10.15;;;5.60;;
22557;SDS011;11445;53.816;8.902;2024-02-16T13:20:41;7.40;;;5.40;;
22557;SDS011;11445;53.816;8.902;2024-02-16T13:23:10;14.73;;;5.93;;
22557;SDS011;11445;53.816;8.902;2024-02-16T13:25:36;8.65;;;5.80;;
22557;SDS011;11445;53.816;8.902;2024-02-16T13:28:03;9.52;;;6.15;;
22557;SDS011;11445;53.816;8.902;2024-02-16T13:30:30;8.98;;;6.00;;
22557;SDS011;11445;53.816;8.902;2024-02-16T13:32:57;12.13;;;6.50;;
22557;SDS011;11445;53.816;8.902;2024-02-16T13:35:24;11.60;;;6.63;;
22557;SDS011;11445;53.816;8.902;2024-02-16T13:37:51;12.07;;;6.60;;
22557;SDS011;11445;53.816;8.902;2024-02-16T13:40:19;11.13;;;6.53;;
22557;SDS011;11445;53.816;8.902;2024-02-16T13:42:46;9.23;;;6.93;;
22557;SDS011;11445;53.816;8.902;2024-02-16T13:45:13;15.38;;;7.75;;
22557;SDS011;11445;53.816;8.902;2024-02-16T13:47:40;14.35;;;7.70;;
22557;SDS011;11445;53.816;8.902;2024-02-16T13:50:07;14.43;;;7.82;;
22557;SDS011;11445;53.816;8.902;2024-02-16T13:52:34;18.15;;;7.65;;
22557;SDS011;11445;53.816;8.902;2024-02-16T13:55:01;15.50;;;8.20;;
22557;SDS011;11445;53.816;8.902;2024-02-16T13:57:29;12.85;;;9.13;;
22557;SDS011;11445;53.816;8.902;2024-02-16T13:59:56;10.40;;;8.20;;
22557;SDS011;11445;53.816;8.902;2024-02-16T14:02:23;10.80;;;8.27;;
22557;SDS011;11445;53.816;8.902;2024-02-16T14:04:50;13.52;;;8.40;;
22557;SDS011;11445;53.816;8.902;2024-02-16T14:07:17;17.02;;;9.43;;
22557;SDS011;11445;53.816;8.902;2024-02-16T14:09:44;18.88;;;9.55;;
22557;SDS011;11445;53.816;8.902;2024-02-16T14:12:11;16.60;;;9.43;;
22557;SDS011;11445;53.816;8.902;2024-02-16T14:14:39;14.10;;;9.43;;
22557;SDS011;11445;53.816;8.902;2024-02-16T14:17:06;16.30;;;9.70;;
22557;SDS011;11445;53.816;8.902;2024-02-16T14:19:33;13.30;;;10.13;;
22557;SDS011;11445;53.816;8.902;2024-02-16T14:22:02;15.32;;;9.57;;
22557;SDS011;11445;53.816;8.902;2024-02-16T14:24:31;15.05;;;9.45;;
22557;SDS011;11445;53.816;8.902;2024-02-16T14:26:58;10.40;;;8.70;;
22557;SDS011;11445;53.816;8.902;2024-02-16T14:29:25;11.48;;;8.80;;
22557;SDS011;11445;53.816;8.902;2024-02-16T14:31:55;12.65;;;9.10;;
22557;SDS011;11445;53.816;8.902;2024-02-16T14:34:22;11.25;;;9.00;;
22557;SDS011;11445;53.816;8.902;2024-02-16T14:36:49;17.95;;;8.77;;
22557;SDS011;11445;53.816;8.902;2024-02-16T14:39:15;10.68;;;7.95;;
22557;SDS011;11445;53.816;8.902;2024-02-16T14:41:42;11.80;;;6.78;;
22557;SDS011;11445;53.816;8.902;2024-02-16T14:44:09;8.77;;;5.75;;